King of Scandinavia — OVOL2 — position and weather

sailwx.info

Track history (hours):
 
Tides and Currents Weather Stations Pressure Air Temp Water Temp Dewpoint Dewpoint Depression Visibility Wind Speed Wind Dir Waves Ship Positions

King of Scandinavia

Ship's website: http://www.dfds.co.uk/DSW/EN/OnBoard/na/KING.htm

Last reported at 2015-Apr-21 07:34 UTC. Time now 2015-Apr-21 08:23 UTC.
Position N 52°28' E 004°35'.

Length 166 m; beam 27.6 m; draft 6.2 m.

Type: Passenger vessel. MMSI: 220449000.

Date/timePositionNaut miles runAvg speedWind from/ knotsBaromVisibWave heightAir tempDewpointWater temp
2015-Apr-21 07:34N 52°28' E 004°35'1111.2
2015-Apr-21 06:33N 52°34' E 004°20'1717.2
2015-Apr-21 05:33N 52°46' E 003°59'1817.3
2015-Apr-21 04:33N 52°57' E 003°36'8616.9
2015-Apr-20 23:26N 53°50' E 001°42'3417.9
2015-Apr-20 21:33N 54°08' E 000°55'1817.8
2015-Apr-20 20:33N 54°18' E 000°29'1818.1
2015-Apr-20 19:33N 54°28' E 000°03'1918.6
2015-Apr-20 18:33N 54°38' W 000°24'1918.7
2015-Apr-20 17:33N 54°48' W 000°51'1817.0
2015-Apr-20 16:28N 54°58' W 001°18'2 0.2
2015-Apr-20 07:20N 54°58' W 001°15'1417.0
2015-Apr-20 06:30N 54°50' W 000°54'2116.8
2015-Apr-20 05:16N 54°39' W 000°24'1216.3
2015-Apr-20 04:33N 54°33' W 000°07'1616.3
2015-Apr-20 03:33N 54°24' E 000°16'1717.0
2015-Apr-20 02:33N 54°14' E 000°40'15016.0
2015-Apr-19 17:12N 52°44' E 004°02'1015.2
2015-Apr-19 16:33N 52°38' E 004°14'1515.2
2015-Apr-19 15:33N 52°28' E 004°33'1 1.4
2015-Apr-19 14:33N 52°28' E 004°35'0 0.0
2015-Apr-19 13:27N 52°28' E 004°35'0 0.0
2015-Apr-19 12:33N 52°28' E 004°35'0 0.0
2015-Apr-19 11:33N 52°28' E 004°35'0 0.0
2015-Apr-19 10:33N 52°28' E 004°35'0 0.0
2015-Apr-19 09:33N 52°28' E 004°35'0 0.0
2015-Apr-19 08:33N 52°28' E 004°35'0 0.1
2015-Apr-19 07:34N 52°28' E 004°35'1413.6
2015-Apr-19 06:33N 52°36' E 004°17'16816.8
2015-Apr-18 20:33N 54°18' E 000°32'1717.0
2015-Apr-18 19:33N 54°27' E 000°07'1717.4
2015-Apr-18 18:33N 54°36' W 000°18'1817.9
2015-Apr-18 17:33N 54°46' W 000°44'1818.1
2015-Apr-18 16:33N 54°56' W 001°11'11 1.1
2015-Apr-18 06:33N 54°49' W 000°55'1917.8
2015-Apr-18 05:28N 54°40' W 000°26'1516.6
2015-Apr-18 04:34N 54°32' W 000°04'1414.1
2015-Apr-18 03:33N 54°23' E 000°15'1414.1
2015-Apr-18 02:34N 54°16' E 000°36'15016.7
2015-Apr-17 17:33N 52°46' E 003°58'1717.5
2015-Apr-17 16:34N 52°34' E 004°20'1111.1
2015-Apr-17 15:33N 52°28' E 004°35'0 0.0
2015-Apr-17 14:25N 52°28' E 004°35'0 0.0
2015-Apr-17 13:25N 52°28' E 004°35'0 0.0
2015-Apr-17 12:25N 52°28' E 004°35'0 0.0
2015-Apr-17 11:31N 52°28' E 004°35'0 0.0
2015-Apr-17 10:22N 52°28' E 004°35'0 0.0
2015-Apr-17 09:31N 52°28' E 004°35'0 0.0
2015-Apr-17 08:31N 52°28' E 004°35'0 0.2
2015-Apr-17 07:34N 52°28' E 004°35'1110.9
2015-Apr-17 06:34N 52°34' E 004°20'1615.8
2015-Apr-17 05:33N 52°44' E 004°00'1918.3
2015-Apr-17 04:32N 52°56' E 003°37'2017.8
2015-Apr-17 03:26N 53°09' E 003°12'1517.5
2015-Apr-17 02:33N 53°20' E 002°52'3417.0
2015-Apr-17 00:33N 53°40' E 002°08'1817.5
2015-Apr-16 23:33N 53°50' E 001°43'1818.2
2015-Apr-16 22:33N 54°00' E 001°17'1818.2
2015-Apr-16 21:33N 54°10' E 000°51'1818.3
2015-Apr-16 20:33N 54°20' E 000°25'1818.3
2015-Apr-16 19:33N 54°30' W 000°01'1818.3
2015-Apr-16 18:33N 54°39' W 000°29'1918.7
2015-Apr-16 17:33N 54°50' W 000°55'3 0.3
2015-Apr-16 06:33N 54°49' W 000°50'2020.1
2015-Apr-16 05:33N 54°38' W 000°20'1817.9
2015-Apr-16 04:33N 54°28' E 000°05'1717.3
2015-Apr-16 03:33N 54°18' E 000°30'1916.9
2015-Apr-16 02:27N 54°08' E 000°56'13915.6
2015-Apr-15 17:33N 52°44' E 004°02'1514.5
2015-Apr-15 16:33N 52°34' E 004°19'1211.7
2015-Apr-15 15:33N 52°28' E 004°35'0 0.0
2015-Apr-15 14:33N 52°28' E 004°35'0 0.0
2015-Apr-15 13:33N 52°28' E 004°35'0 0.0
2015-Apr-15 12:33N 52°28' E 004°35'0 0.0
2015-Apr-15 11:33N 52°28' E 004°35'0 0.0
2015-Apr-15 10:30N 52°28' E 004°35'0 0.0
2015-Apr-15 09:33N 52°28' E 004°35'0 0.0
2015-Apr-15 08:33N 52°28' E 004°35'0 0.1
2015-Apr-15 07:33N 52°28' E 004°35'1111.3
2015-Apr-15 06:33N 52°34' E 004°20'1817.7
2015-Apr-15 05:33N 52°46' E 003°58'1918.2
2015-Apr-15 04:32N 52°58' E 003°34'12718.0
2015-Apr-14 21:30N 54°13' E 000°42'1617.3
2015-Apr-14 20:33N 54°22' E 000°18'1717.4
2015-Apr-14 19:33N 54°32' W 000°06'1717.3
2015-Apr-14 18:33N 54°41' W 000°31'1717.3
2015-Apr-14 17:33N 54°51' W 000°57'1817.3
2015-Apr-14 16:30N 55°01' W 001°23'8 0.9
2015-Apr-14 07:20N 54°57' W 001°11'1417.4
2015-Apr-14 06:33N 54°49' W 000°51'1917.8
2015-Apr-14 05:30N 54°39' W 000°24'1718.3
2015-Apr-14 04:33N 54°29' E 000°01'1818.0
2015-Apr-14 03:33N 54°20' E 000°27'13115.6
2015-Apr-13 19:10N 53°03' E 003°25'1015.7
2015-Apr-13 18:33N 52°57' E 003°37'3115.0
2015-Apr-13 16:28N 52°36' E 004°16'1314.2
2015-Apr-13 15:33N 52°28' E 004°32'2 1.7
2015-Apr-13 14:33N 52°28' E 004°35'0 0.0
2015-Apr-13 13:33N 52°28' E 004°35'0 0.0
2015-Apr-13 12:24N 52°28' E 004°35'0 0.0
2015-Apr-13 11:33N 52°28' E 004°35'0 0.0
2015-Apr-13 10:27N 52°28' E 004°35'0 0.0
2015-Apr-13 09:33N 52°28' E 004°35'0 0.0
2015-Apr-13 08:33N 52°28' E 004°35'1 0.6
2015-Apr-13 07:33N 52°28' E 004°34'1414.3
2015-Apr-13 06:33N 52°37' E 004°16'1515.4
2015-Apr-13 05:33N 52°46' E 003°56'14017.2
2015-Apr-12 21:25N 54°11' E 000°48'1618.7
2015-Apr-12 20:34N 54°20' E 000°25'1918.8
2015-Apr-12 19:33N 54°30' W 000°02'1918.6
2015-Apr-12 18:34N 54°40' W 000°29'2018.5
2015-Apr-12 17:30N 54°51' W 000°57'1718.0
2015-Apr-12 16:33N 55°00' W 001°22'19 1.8
2015-Apr-12 06:29N 54°51' W 000°54'1918.3
2015-Apr-12 05:26N 54°40' W 000°27'1617.9
2015-Apr-12 04:34N 54°31' W 000°04'1818.1
2015-Apr-12 03:34N 54°21' E 000°22'2217.9
2015-Apr-12 02:21N 54°10' E 000°54'12916.0
2015-Apr-11 18:17N 52°52' E 003°47'1114.8
2015-Apr-11 17:34N 52°45' E 004°00'1514.5
2015-Apr-11 16:33N 52°35' E 004°18'1312.8
2015-Apr-11 15:33N 52°28' E 004°35'0 0.0
2015-Apr-11 14:26N 52°28' E 004°35'0 0.0
2015-Apr-11 13:20N 52°28' E 004°35'0 0.0
2015-Apr-11 12:32N 52°28' E 004°35'0 0.0
2015-Apr-11 11:29N 52°28' E 004°35'0 0.0
2015-Apr-11 10:32N 52°28' E 004°35'0 0.0
2015-Apr-11 09:26N 52°28' E 004°35'0 0.0
2015-Apr-11 08:29N 52°28' E 004°35'  
Track history (hours):
 
Tides and Currents Weather Stations Pressure Air Temp Water Temp Dewpoint Dewpoint Depression Visibility Wind Speed Wind Dir Waves Ship Positions

King of Scandinavia

Ship's website: http://www.dfds.co.uk/DSW/EN/OnBoard/na/KING.htm

Last reported at 2015-Apr-21 07:34 UTC. Time now 2015-Apr-21 08:23 UTC.
Position N 52°28' E 004°35'.

Length 166 m; beam 27.6 m; draft 6.2 m.

Type: Passenger vessel. MMSI: 220449000.

Date/timePositionNaut miles runAvg speedWind from/ knotsBaromVisibWave heightAir tempDewpointWater temp
2015-Apr-21 07:34N 52°28' E 004°35'1111.2
2015-Apr-21 06:33N 52°34' E 004°20'1717.2
2015-Apr-21 05:33N 52°46' E 003°59'1817.3
2015-Apr-21 04:33N 52°57' E 003°36'8616.9
2015-Apr-20 23:26N 53°50' E 001°42'3417.9
2015-Apr-20 21:33N 54°08' E 000°55'1817.8
2015-Apr-20 20:33N 54°18' E 000°29'1818.1
2015-Apr-20 19:33N 54°28' E 000°03'1918.6
2015-Apr-20 18:33N 54°38' W 000°24'1918.7
2015-Apr-20 17:33N 54°48' W 000°51'1817.0
2015-Apr-20 16:28N 54°58' W 001°18'2 0.2
2015-Apr-20 07:20N 54°58' W 001°15'1417.0
2015-Apr-20 06:30N 54°50' W 000°54'2116.8
2015-Apr-20 05:16N 54°39' W 000°24'1216.3
2015-Apr-20 04:33N 54°33' W 000°07'1616.3
2015-Apr-20 03:33N 54°24' E 000°16'1717.0
2015-Apr-20 02:33N 54°14' E 000°40'15016.0
2015-Apr-19 17:12N 52°44' E 004°02'1015.2
2015-Apr-19 16:33N 52°38' E 004°14'1515.2
2015-Apr-19 15:33N 52°28' E 004°33'1 1.4
2015-Apr-19 14:33N 52°28' E 004°35'0 0.0
2015-Apr-19 13:27N 52°28' E 004°35'0 0.0
2015-Apr-19 12:33N 52°28' E 004°35'0 0.0
2015-Apr-19 11:33N 52°28' E 004°35'0 0.0
2015-Apr-19 10:33N 52°28' E 004°35'0 0.0
2015-Apr-19 09:33N 52°28' E 004°35'0 0.0
2015-Apr-19 08:33N 52°28' E 004°35'0 0.1
2015-Apr-19 07:34N 52°28' E 004°35'1413.6
2015-Apr-19 06:33N 52°36' E 004°17'16816.8
2015-Apr-18 20:33N 54°18' E 000°32'1717.0
2015-Apr-18 19:33N 54°27' E 000°07'1717.4
2015-Apr-18 18:33N 54°36' W 000°18'1817.9
2015-Apr-18 17:33N 54°46' W 000°44'1818.1
2015-Apr-18 16:33N 54°56' W 001°11'11 1.1
2015-Apr-18 06:33N 54°49' W 000°55'1917.8
2015-Apr-18 05:28N 54°40' W 000°26'1516.6
2015-Apr-18 04:34N 54°32' W 000°04'1414.1
2015-Apr-18 03:33N 54°23' E 000°15'1414.1
2015-Apr-18 02:34N 54°16' E 000°36'15016.7
2015-Apr-17 17:33N 52°46' E 003°58'1717.5
2015-Apr-17 16:34N 52°34' E 004°20'1111.1
2015-Apr-17 15:33N 52°28' E 004°35'0 0.0
2015-Apr-17 14:25N 52°28' E 004°35'0 0.0
2015-Apr-17 13:25N 52°28' E 004°35'0 0.0
2015-Apr-17 12:25N 52°28' E 004°35'0 0.0
2015-Apr-17 11:31N 52°28' E 004°35'0 0.0
2015-Apr-17 10:22N 52°28' E 004°35'0 0.0
2015-Apr-17 09:31N 52°28' E 004°35'0 0.0
2015-Apr-17 08:31N 52°28' E 004°35'0 0.2
2015-Apr-17 07:34N 52°28' E 004°35'1110.9
2015-Apr-17 06:34N 52°34' E 004°20'1615.8
2015-Apr-17 05:33N 52°44' E 004°00'1918.3
2015-Apr-17 04:32N 52°56' E 003°37'2017.8
2015-Apr-17 03:26N 53°09' E 003°12'1517.5
2015-Apr-17 02:33N 53°20' E 002°52'3417.0
2015-Apr-17 00:33N 53°40' E 002°08'1817.5
2015-Apr-16 23:33N 53°50' E 001°43'1818.2
2015-Apr-16 22:33N 54°00' E 001°17'1818.2
2015-Apr-16 21:33N 54°10' E 000°51'1818.3
2015-Apr-16 20:33N 54°20' E 000°25'1818.3
2015-Apr-16 19:33N 54°30' W 000°01'1818.3
2015-Apr-16 18:33N 54°39' W 000°29'1918.7
2015-Apr-16 17:33N 54°50' W 000°55'3 0.3
2015-Apr-16 06:33N 54°49' W 000°50'2020.1
2015-Apr-16 05:33N 54°38' W 000°20'1817.9
2015-Apr-16 04:33N 54°28' E 000°05'1717.3
2015-Apr-16 03:33N 54°18' E 000°30'1916.9
2015-Apr-16 02:27N 54°08' E 000°56'13915.6
2015-Apr-15 17:33N 52°44' E 004°02'1514.5
2015-Apr-15 16:33N 52°34' E 004°19'1211.7
2015-Apr-15 15:33N 52°28' E 004°35'0 0.0
2015-Apr-15 14:33N 52°28' E 004°35'0 0.0
2015-Apr-15 13:33N 52°28' E 004°35'0 0.0
2015-Apr-15 12:33N 52°28' E 004°35'0 0.0
2015-Apr-15 11:33N 52°28' E 004°35'0 0.0
2015-Apr-15 10:30N 52°28' E 004°35'0 0.0
2015-Apr-15 09:33N 52°28' E 004°35'0 0.0
2015-Apr-15 08:33N 52°28' E 004°35'0 0.1
2015-Apr-15 07:33N 52°28' E 004°35'1111.3
2015-Apr-15 06:33N 52°34' E 004°20'1817.7
2015-Apr-15 05:33N 52°46' E 003°58'1918.2
2015-Apr-15 04:32N 52°58' E 003°34'12718.0
2015-Apr-14 21:30N 54°13' E 000°42'1617.3
2015-Apr-14 20:33N 54°22' E 000°18'1717.4
2015-Apr-14 19:33N 54°32' W 000°06'1717.3
2015-Apr-14 18:33N 54°41' W 000°31'1717.3
2015-Apr-14 17:33N 54°51' W 000°57'1817.3
2015-Apr-14 16:30N 55°01' W 001°23'8 0.9
2015-Apr-14 07:20N 54°57' W 001°11'1417.4
2015-Apr-14 06:33N 54°49' W 000°51'1917.8
2015-Apr-14 05:30N 54°39' W 000°24'1718.3
2015-Apr-14 04:33N 54°29' E 000°01'1818.0
2015-Apr-14 03:33N 54°20' E 000°27'13115.6
2015-Apr-13 19:10N 53°03' E 003°25'1015.7
2015-Apr-13 18:33N 52°57' E 003°37'3115.0
2015-Apr-13 16:28N 52°36' E 004°16'1314.2
2015-Apr-13 15:33N 52°28' E 004°32'2 1.7
2015-Apr-13 14:33N 52°28' E 004°35'0 0.0
2015-Apr-13 13:33N 52°28' E 004°35'0 0.0
2015-Apr-13 12:24N 52°28' E 004°35'0 0.0
2015-Apr-13 11:33N 52°28' E 004°35'0 0.0
2015-Apr-13 10:27N 52°28' E 004°35'0 0.0
2015-Apr-13 09:33N 52°28' E 004°35'0 0.0
2015-Apr-13 08:33N 52°28' E 004°35'1 0.6
2015-Apr-13 07:33N 52°28' E 004°34'1414.3
2015-Apr-13 06:33N 52°37' E 004°16'1515.4
2015-Apr-13 05:33N 52°46' E 003°56'14017.2
2015-Apr-12 21:25N 54°11' E 000°48'1618.7
2015-Apr-12 20:34N 54°20' E 000°25'1918.8
2015-Apr-12 19:33N 54°30' W 000°02'1918.6
2015-Apr-12 18:34N 54°40' W 000°29'2018.5
2015-Apr-12 17:30N 54°51' W 000°57'1718.0
2015-Apr-12 16:33N 55°00' W 001°22'19 1.8
2015-Apr-12 06:29N 54°51' W 000°54'1918.3
2015-Apr-12 05:26N 54°40' W 000°27'1617.9
2015-Apr-12 04:34N 54°31' W 000°04'1818.1
2015-Apr-12 03:34N 54°21' E 000°22'2217.9
2015-Apr-12 02:21N 54°10' E 000°54'12916.0
2015-Apr-11 18:17N 52°52' E 003°47'1114.8
2015-Apr-11 17:34N 52°45' E 004°00'1514.5
2015-Apr-11 16:33N 52°35' E 004°18'1312.8
2015-Apr-11 15:33N 52°28' E 004°35'0 0.0
2015-Apr-11 14:26N 52°28' E 004°35'0 0.0
2015-Apr-11 13:20N 52°28' E 004°35'0 0.0
2015-Apr-11 12:32N 52°28' E 004°35'0 0.0
2015-Apr-11 11:29N 52°28' E 004°35'0 0.0
2015-Apr-11 10:32N 52°28' E 004°35'0 0.0
2015-Apr-11 09:26N 52°28' E 004°35'0 0.0
2015-Apr-11 08:29N 52°28' E 004°35'  

Dump ship's entire track history